Time;durP1;ratioP1;P1;durP2;ratioP2;P2;SDS_P1;SDS_P2;PMS_P1;PMS_P2;Temp;Humidity;BMP_temperature;BMP_pressure;BME280_temperature;BME280_humidity;BME280_pressure;Samples;Min_cycle;Max_cycle;Signal;HPM_P1;HPM_P2
2021/12/04 00:01:46;;;;;;;5.03;3.50;;;5.00;97.80;;;;;;5053203;28;20464;-60
2021/12/04 00:04:18;;;;;;;3.63;2.80;;;5.00;98.30;;;;;;5053203;28;20448;-60
2021/12/04 00:06:48;;;;;;;3.97;3.33;;;4.90;97.40;;;;;;5052919;28;20773;-59
2021/12/04 00:09:17;;;;;;;4.27;3.47;;;4.80;97.90;;;;;;5052759;28;20485;-60
2021/12/04 00:11:52;;;;;;;2.90;2.60;;;4.90;98.50;;;;;;5053083;28;20481;-60
2021/12/04 00:14:19;;;;;;;3.43;3.20;;;5.00;97.40;;;;;;5053102;28;20436;-60
2021/12/04 00:16:47;;;;;;;3.07;2.87;;;5.00;97.60;;;;;;5053059;28;20461;-60
2021/12/04 00:19:14;;;;;;;3.60;3.30;;;5.00;97.50;;;;;;5052670;28;20481;-60
2021/12/04 00:21:41;;;;;;;2.77;2.50;;;4.90;98.10;;;;;;5052976;28;20448;-60
2021/12/04 00:24:10;;;;;;;4.10;2.80;;;5.10;97.70;;;;;;5052948;28;20445;-60
2021/12/04 00:26:38;;;;;;;3.23;3.00;;;5.00;98.30;;;;;;5053628;28;20460;-60
2021/12/04 00:29:06;;;;;;;3.40;3.10;;;5.10;98.10;;;;;;5056452;28;20449;-60
2021/12/04 00:31:33;;;;;;;3.63;3.10;;;5.10;97.90;;;;;;5056157;28;20994;-60
2021/12/04 00:34:01;;;;;;;3.60;2.90;;;5.20;98.00;;;;;;5056492;28;20869;-60
2021/12/04 00:36:34;;;;;;;4.50;3.33;;;5.20;98.10;;;;;;5056357;28;20449;-60
2021/12/04 00:50:01;;;;;;;3.43;3.13;;;5.20;98.10;;;;;;5055993;28;20950;-60
2021/12/04 00:52:28;;;;;;;3.57;3.27;;;5.20;98.30;;;;;;5056386;28;20481;-60
2021/12/04 00:54:55;;;;;;;4.00;3.60;;;5.20;98.40;;;;;;5056152;28;20442;-61
2021/12/04 00:57:24;;;;;;;4.00;3.70;;;5.10;98.70;;;;;;5055808;28;20447;-61
2021/12/04 00:59:51;;;;;;;4.37;4.07;;;5.30;98.80;;;;;;5055683;28;20469;-61
2021/12/04 01:02:19;;;;;;;3.37;3.13;;;5.40;98.60;;;;;;5055787;28;20433;-60
2021/12/04 01:04:46;;;;;;;4.30;3.10;;;5.30;98.80;;;;;;5055659;28;20954;-60
2021/12/04 01:07:14;;;;;;;4.33;3.93;;;5.20;99.00;;;;;;5055913;28;20451;-60
2021/12/04 01:09:42;;;;;;;5.40;3.57;;;5.30;99.10;;;;;;5056328;28;20465;-60
2021/12/04 01:12:11;;;;;;;4.10;3.40;;;5.30;99.90;;;;;;5055437;28;20487;-60
2021/12/04 01:14:40;;;;;;;3.40;3.00;;;5.40;99.20;;;;;;5055811;28;20799;-60
2021/12/04 01:17:07;;;;;;;3.30;3.00;;;5.30;99.60;;;;;;5055560;28;20457;-60
2021/12/04 01:19:36;;;;;;;4.20;3.80;;;5.30;99.90;;;;;;5055318;28;20572;-60
2021/12/04 01:22:05;;;;;;;3.37;3.07;;;5.40;99.80;;;;;;5055713;28;20445;-61
2021/12/04 01:24:33;;;;;;;3.33;3.03;;;5.40;99.90;;;;;;5055588;28;20465;-61
2021/12/04 01:27:00;;;;;;;3.73;3.43;;;5.30;99.90;;;;;;5055255;28;20931;-60
2021/12/04 01:29:27;;;;;;;3.90;3.07;;;5.30;99.90;;;;;;5055465;28;20472;-60
2021/12/04 01:31:56;;;;;;;3.83;3.43;;;5.30;99.90;;;;;;5055445;28;20834;-61
2021/12/04 01:34:23;;;;;;;6.80;3.73;;;5.30;99.90;;;;;;5055435;28;20448;-60
2021/12/04 01:36:50;;;;;;;3.23;2.93;;;5.20;99.90;;;;;;5055354;28;20446;-60
2021/12/04 01:39:17;;;;;;;3.43;3.13;;;5.30;99.90;;;;;;5054924;28;20453;-61
2021/12/04 01:41:44;;;;;;;3.70;3.40;;;5.10;99.90;;;;;;5055840;28;20444;-61
2021/12/04 01:44:14;;;;;;;3.30;3.00;;;5.20;99.90;;;;;;5054900;28;20456;-60
2021/12/04 01:46:42;;;;;;;4.20;3.00;;;5.20;99.90;;;;;;5054938;28;20462;-60
2021/12/04 01:49:10;;;;;;;5.27;3.13;;;5.00;99.90;;;;;;5054763;28;20453;-59
2021/12/04 01:51:37;;;;;;;3.17;2.90;;;4.80;99.90;;;;;;5054713;28;20512;-58
2021/12/04 01:54:05;;;;;;;3.30;3.00;;;4.50;99.90;;;;;;5055028;28;20452;-59
2021/12/04 01:56:34;;;;;;;3.13;2.87;;;4.40;99.90;;;;;;5054999;28;20449;-59
2021/12/04 01:59:01;;;;;;;3.97;3.57;;;4.40;99.90;;;;;;5054938;28;20782;-59
2021/12/04 02:01:31;;;;;;;3.73;3.43;;;4.40;99.90;;;;;;5054908;28;20546;-59
2021/12/04 02:03:58;;;;;;;3.33;3.10;;;4.30;99.90;;;;;;5054853;28;20453;-59
2021/12/04 02:06:27;;;;;;;3.80;3.37;;;4.40;99.90;;;;;;5054506;28;20932;-59
2021/12/04 02:08:54;;;;;;;3.93;3.50;;;4.40;99.90;;;;;;5054471;28;20485;-59
2021/12/04 02:11:21;;;;;;;2.90;2.70;;;4.40;99.90;;;;;;5054254;28;20993;-59
2021/12/04 02:13:48;;;;;;;4.33;3.93;;;4.40;99.90;;;;;;5054636;28;20449;-59
2021/12/04 02:16:16;;;;;;;3.57;3.27;;;4.30;99.90;;;;;;5054344;28;20799;-60
2021/12/04 02:18:44;;;;;;;3.57;3.27;;;4.30;99.90;;;;;;5054084;28;20483;-59
2021/12/04 02:21:13;;;;;;;3.80;3.50;;;4.30;99.90;;;;;;5054170;28;20975;-59
2021/12/04 02:23:40;;;;;;;4.20;3.20;;;4.40;99.90;;;;;;5054149;28;20448;-59
2021/12/04 02:26:07;;;;;;;3.30;2.90;;;4.50;99.90;;;;;;5054426;28;20453;-60
2021/12/04 02:28:35;;;;;;;2.93;2.73;;;4.60;99.90;;;;;;5054003;28;20449;-59
2021/12/04 02:31:02;;;;;;;3.20;3.00;;;4.50;99.90;;;;;;5053941;28;21070;-60
2021/12/04 02:33:29;;;;;;;3.60;3.27;;;4.60;99.90;;;;;;5053765;28;20991;-59
2021/12/04 02:35:57;;;;;;;4.07;3.23;;;4.60;99.90;;;;;;5054266;28;20445;-60
2021/12/04 02:38:27;;;;;;;3.17;2.90;;;4.50;99.90;;;;;;5054252;28;20450;-59
2021/12/04 02:40:56;;;;;;;4.43;3.57;;;4.50;99.90;;;;;;5054120;28;20491;-60
2021/12/04 02:43:24;;;;;;;3.90;3.50;;;4.60;99.90;;;;;;5053886;28;20437;-59
2021/12/04 02:45:51;;;;;;;4.07;3.57;;;4.70;99.90;;;;;;5053822;28;20817;-60
2021/12/04 02:48:19;;;;;;;4.17;3.30;;;4.70;99.90;;;;;;5054265;28;20532;-59
2021/12/04 02:50:47;;;;;;;3.90;3.17;;;4.60;99.90;;;;;;5053302;28;20469;-60
2021/12/04 02:53:15;;;;;;;4.00;3.57;;;4.60;99.90;;;;;;5053580;28;20485;-60
2021/12/04 02:55:44;;;;;;;4.80;3.93;;;4.60;99.90;;;;;;5053991;28;20812;-60
2021/12/04 02:58:13;;;;;;;4.00;3.70;;;4.70;99.90;;;;;;5053913;28;20450;-60
2021/12/04 03:00:47;;;;;;;4.70;4.30;;;4.70;99.90;;;;;;5053791;28;20472;-60
2021/12/04 03:03:14;;;;;;;4.40;3.87;;;4.70;99.90;;;;;;5053599;28;20436;-59
2021/12/04 03:05:41;;;;;;;5.00;4.03;;;4.60;99.90;;;;;;5053825;28;20813;-60
2021/12/04 03:08:08;;;;;;;3.70;3.23;;;4.60;99.90;;;;;;5053695;28;20471;-60
2021/12/04 03:10:36;;;;;;;5.00;3.80;;;4.60;99.90;;;;;;5054470;28;20472;-60
2021/12/04 03:13:08;;;;;;;7.67;3.80;;;4.50;99.90;;;;;;5053629;28;20492;-59
2021/12/04 03:15:37;;;;;;;4.50;3.90;;;4.60;99.90;;;;;;5053719;28;20495;-59
2021/12/04 03:18:05;;;;;;;5.70;3.73;;;4.50;99.90;;;;;;5053852;28;20453;-60
2021/12/04 03:20:32;;;;;;;4.60;4.20;;;4.50;99.90;;;;;;5053163;28;20487;-60
2021/12/04 03:23:01;;;;;;;4.90;4.50;;;4.50;99.90;;;;;;5053595;28;20449;-59
2021/12/04 03:25:29;;;;;;;4.43;4.03;;;4.50;99.90;;;;;;5053639;28;20515;-60
2021/12/04 03:27:56;;;;;;;7.10;3.70;;;4.40;99.90;;;;;;5053256;28;20838;-60
2021/12/04 03:30:37;;;;;;;4.77;4.13;;;4.50;99.90;;;;;;5053505;28;20793;-60
2021/12/04 03:41:13;;;;;;;4.87;4.47;;;4.50;99.90;;;;;;5053237;28;20455;-59
2021/12/04 03:43:40;;;;;;;5.20;4.37;;;4.60;99.90;;;;;;5053148;28;20437;-60
2021/12/04 03:46:13;;;;;;;9.83;4.63;;;4.50;99.90;;;;;;5052991;28;21067;-60
2021/12/04 03:51:23;;;;;;;7.40;3.80;;;4.70;99.90;;;;;;5050199;28;20574;-60
2021/12/04 03:53:50;;;;;;;4.67;3.60;;;4.70;99.90;;;;;;5052950;28;20845;-60
2021/12/04 03:56:21;;;;;;;4.30;3.97;;;4.80;99.90;;;;;;5053006;28;20453;-60
2021/12/04 03:58:48;;;;;;;4.17;3.77;;;4.70;99.90;;;;;;5053360;28;20459;-60
2021/12/04 04:01:17;;;;;;;4.00;3.70;;;4.70;99.90;;;;;;5053625;28;20467;-60
2021/12/04 04:03:44;;;;;;;3.90;3.40;;;4.70;99.90;;;;;;5056844;28;20476;-60
2021/12/04 04:06:11;;;;;;;4.70;3.90;;;4.70;99.90;;;;;;5056751;28;20453;-60
2021/12/04 04:08:38;;;;;;;4.97;4.30;;;4.70;99.90;;;;;;5057042;28;20451;-60
2021/12/04 04:11:05;;;;;;;6.20;3.73;;;4.70;99.90;;;;;;5056941;28;20473;-60
2021/12/04 04:13:33;;;;;;;5.53;4.00;;;4.80;99.90;;;;;;5056864;28;20556;-60
2021/12/04 04:16:01;;;;;;;9.00;6.50;;;4.90;99.90;;;;;;5056493;28;20484;-62
2021/12/04 04:18:32;;;;;;;4.13;3.80;;;4.90;99.90;;;;;;5056580;28;20449;-61
2021/12/04 04:20:59;;;;;;;5.20;4.20;;;4.80;99.90;;;;;;5056494;28;20977;-59
2021/12/04 04:23:26;;;;;;;4.57;4.10;;;4.80;99.90;;;;;;5056775;28;20449;-61
2021/12/04 04:25:54;;;;;;;5.27;4.80;;;4.80;99.90;;;;;;5056735;28;20472;-61
2021/12/04 04:28:21;;;;;;;5.20;4.70;;;4.80;99.90;;;;;;5056678;28;20449;-60
2021/12/04 04:30:48;;;;;;;4.40;4.00;;;4.80;99.90;;;;;;5056287;28;20476;-61
2021/12/04 04:33:16;;;;;;;4.63;4.07;;;4.90;99.90;;;;;;5056516;28;20494;-60
2021/12/04 04:35:47;;;;;;;5.27;4.50;;;4.80;99.90;;;;;;5056531;28;20540;-60
2021/12/04 04:38:27;;;;;;;6.80;5.10;;;4.90;99.90;;;;;;5056556;28;20434;-60
2021/12/04 05:00:19;;;;;;;6.60;6.00;;;4.50;99.90;;;;;;5050532;28;20453;-60
2021/12/04 05:11:19;;;;;;;6.23;5.70;;;4.60;99.90;;;;;;5055911;28;20452;-60
2021/12/04 05:13:46;;;;;;;7.60;6.07;;;4.50;99.90;;;;;;5055469;28;20504;-60
2021/12/04 05:16:14;;;;;;;8.10;7.00;;;4.50;99.90;;;;;;5055413;28;20954;-60
2021/12/04 05:18:50;;;;;;;8.53;6.47;;;4.60;99.90;;;;;;5055590;28;20493;-60
2021/12/04 05:21:18;;;;;;;7.23;6.20;;;4.60;99.90;;;;;;5055734;28;20476;-60
2021/12/04 05:23:49;;;;;;;7.10;6.50;;;4.50;99.90;;;;;;5055408;28;20448;-60
2021/12/04 05:26:19;;;;;;;7.33;6.67;;;4.60;99.90;;;;;;5055692;28;20439;-60
2021/12/04 05:28:47;;;;;;;9.63;6.60;;;4.50;99.90;;;;;;5055633;28;20808;-60
2021/12/04 05:31:14;;;;;;;5.60;4.80;;;4.50;99.90;;;;;;5055530;28;20555;-60
2021/12/04 05:33:42;;;;;;;6.00;5.40;;;4.70;99.90;;;;;;5055467;28;20484;-60
2021/12/04 05:36:10;;;;;;;6.60;5.73;;;4.70;99.90;;;;;;5055166;28;20449;-61
2021/12/04 05:38:38;;;;;;;5.30;4.80;;;4.80;99.90;;;;;;5055455;28;20879;-60
2021/12/04 05:41:07;;;;;;;7.10;5.47;;;4.80;99.90;;;;;;5055437;28;20473;-61
2021/12/04 05:43:35;;;;;;;7.10;6.40;;;5.00;99.90;;;;;;5055325;28;20447;-60
2021/12/04 05:46:08;;;;;;;5.93;5.33;;;5.10;99.90;;;;;;5054858;28;20445;-61
2021/12/04 05:48:43;;;;;;;6.37;5.87;;;5.10;99.90;;;;;;5054981;28;20896;-60
2021/12/04 05:51:28;;;;;;;7.70;6.30;;;5.20;99.90;;;;;;5054869;28;20833;-61
2021/12/04 05:54:18;;;;;;;5.37;4.83;;;5.30;99.90;;;;;;5055106;28;20465;-60
2021/12/04 05:56:47;;;;;;;6.00;5.40;;;5.20;99.90;;;;;;5055116;28;20445;-60
2021/12/04 05:59:15;;;;;;;6.27;5.67;;;5.10;99.90;;;;;;5054662;28;20536;-60
2021/12/04 06:01:42;;;;;;;6.43;5.83;;;5.10;99.90;;;;;;5054692;28;20445;-60
2021/12/04 06:04:09;;;;;;;7.10;6.40;;;5.10;99.90;;;;;;5054853;28;20445;-60
2021/12/04 06:06:36;;;;;;;7.07;5.80;;;5.10;99.90;;;;;;5054899;28;20455;-60
2021/12/04 06:09:04;;;;;;;6.27;5.67;;;5.20;99.90;;;;;;5054380;28;20445;-60
2021/12/04 06:11:31;;;;;;;5.37;4.87;;;5.10;99.90;;;;;;5054355;28;20954;-60
2021/12/04 06:14:00;;;;;;;5.87;5.23;;;5.10;99.90;;;;;;5054374;28;20521;-60
2021/12/04 06:16:27;;;;;;;8.53;6.20;;;5.20;99.90;;;;;;5054699;28;20804;-60
2021/12/04 06:18:55;;;;;;;7.50;5.60;;;5.10;99.90;;;;;;5053271;28;20487;-60
2021/12/04 06:24:08;;;;;;;8.10;6.23;;;5.00;99.90;;;;;;5053652;28;20419;-60
2021/12/04 06:26:37;;;;;;;6.73;5.53;;;5.10;99.90;;;;;;5054148;28;20985;-61
2021/12/04 06:29:05;;;;;;;6.50;5.67;;;5.10;99.90;;;;;;5054384;28;20778;-61
2021/12/04 06:31:33;;;;;;;7.87;6.33;;;5.30;99.90;;;;;;5054437;28;20442;-60
2021/12/04 06:34:00;;;;;;;6.27;5.67;;;5.30;99.90;;;;;;5054338;28;20509;-61
2021/12/04 06:36:27;;;;;;;7.70;5.50;;;5.50;99.90;;;;;;5054057;28;20966;-60
2021/12/04 06:38:54;;;;;;;7.30;6.50;;;5.40;99.90;;;;;;5054300;28;20445;-60
2021/12/04 06:41:21;;;;;;;8.23;7.13;;;5.30;99.90;;;;;;5054156;28;20475;-60
2021/12/04 06:43:50;;;;;;;7.57;6.20;;;5.30;99.90;;;;;;5053894;28;20814;-60
2021/12/04 06:46:20;;;;;;;7.87;5.70;;;5.30;99.90;;;;;;5053833;28;20453;-60
2021/12/04 06:48:59;;;;;;;5.00;3.83;;;5.40;99.90;;;;;;5054192;28;20495;-60
2021/12/04 06:51:29;;;;;;;3.97;3.60;;;5.40;99.90;;;;;;5053742;28;20959;-61
2021/12/04 06:53:59;;;;;;;4.47;4.07;;;5.60;99.90;;;;;;5054033;28;20469;-60
2021/12/04 06:56:32;;;;;;;2.90;2.70;;;5.70;99.90;;;;;;5054837;28;20449;-60
2021/12/04 06:59:02;;;;;;;2.20;2.10;;;5.80;99.90;;;;;;5054000;28;20426;-60
2021/12/04 07:01:30;;;;;;;2.47;2.27;;;5.90;99.90;;;;;;5053950;28;20455;-60
2021/12/04 07:03:58;;;;;;;1.60;1.50;;;6.00;99.90;;;;;;5053877;28;20540;-60
2021/12/04 07:06:25;;;;;;;1.30;1.20;;;6.20;99.90;;;;;;5053866;28;20532;-60
2021/12/04 07:08:52;;;;;;;1.43;1.20;;;6.30;99.90;;;;;;5053652;28;20459;-60
2021/12/04 07:11:19;;;;;;;1.50;1.40;;;6.20;99.90;;;;;;5053212;28;20477;-59
2021/12/04 07:13:46;;;;;;;1.20;1.10;;;6.40;99.90;;;;;;5053675;28;20504;-60
2021/12/04 07:16:15;;;;;;;1.40;1.30;;;6.50;99.90;;;;;;5053592;28;20452;-60
2021/12/04 07:18:44;;;;;;;2.00;1.27;;;6.60;99.90;;;;;;5053484;28;20511;-60
2021/12/04 07:21:11;;;;;;;1.37;1.23;;;6.60;99.90;;;;;;5053202;28;20469;-60
2021/12/04 07:23:39;;;;;;;1.50;1.40;;;6.60;99.90;;;;;;5053239;28;20806;-60
2021/12/04 07:26:06;;;;;;;1.70;1.30;;;6.70;99.90;;;;;;5053322;28;20441;-60
2021/12/04 07:28:34;;;;;;;1.40;1.20;;;6.70;99.90;;;;;;5053632;28;20453;-60
2021/12/04 07:31:01;;;;;;;1.20;1.10;;;6.60;99.90;;;;;;5053533;28;20822;-60
2021/12/04 07:33:28;;;;;;;1.60;1.50;;;6.70;99.90;;;;;;5053035;28;21021;-60
2021/12/04 07:35:57;;;;;;;1.90;1.80;;;6.70;99.90;;;;;;5055117;28;20453;-61
2021/12/04 07:38:25;;;;;;;1.30;1.20;;;6.70;99.90;;;;;;5057302;28;20928;-60
2021/12/04 07:40:52;;;;;;;1.30;1.20;;;6.80;99.90;;;;;;5057502;28;20564;-60
2021/12/04 07:43:19;;;;;;;1.40;1.30;;;6.70;99.90;;;;;;5057581;28;20445;-60
2021/12/04 07:45:46;;;;;;;1.60;1.50;;;6.70;99.90;;;;;;5057289;28;20430;-60
2021/12/04 07:48:14;;;;;;;1.30;1.20;;;6.60;99.90;;;;;;5057633;28;20548;-60
2021/12/04 07:50:41;;;;;;;1.50;1.40;;;6.70;99.90;;;;;;5057322;28;20475;-60
2021/12/04 07:53:09;;;;;;;1.40;1.30;;;6.60;99.90;;;;;;5057258;28;20449;-60
2021/12/04 07:55:37;;;;;;;1.50;1.40;;;6.70;99.90;;;;;;5057203;28;20479;-60
2021/12/04 07:58:04;;;;;;;1.20;1.10;;;6.80;99.90;;;;;;5057247;28;20913;-60
2021/12/04 08:00:31;;;;;;;1.20;1.10;;;6.80;99.90;;;;;;5057208;28;20822;-61
2021/12/04 08:03:01;;;;;;;1.80;1.30;;;6.90;99.90;;;;;;5057075;28;20556;-60
2021/12/04 08:05:29;;;;;;;1.57;1.47;;;6.70;99.90;;;;;;5056845;28;21002;-60
2021/12/04 08:07:57;;;;;;;1.60;1.40;;;6.80;99.90;;;;;;5057077;28;20445;-60
2021/12/04 08:10:26;;;;;;;2.23;1.40;;;6.90;99.90;;;;;;5056884;28;20469;-59
2021/12/04 08:12:53;;;;;;;1.50;1.40;;;6.90;99.90;;;;;;5056709;28;20536;-62
2021/12/04 08:15:20;;;;;;;1.57;1.47;;;7.00;99.90;;;;;;5056427;28;20481;-60
2021/12/04 08:17:48;;;;;;;1.33;1.23;;;7.10;99.90;;;;;;5056827;28;20549;-60
2021/12/04 08:20:17;;;;;;;1.47;1.37;;;7.20;99.90;;;;;;5056267;28;20480;-60
2021/12/04 08:22:45;;;;;;;5.60;1.83;;;7.10;99.90;;;;;;5056384;28;20484;-60
2021/12/04 08:25:14;;;;;;;1.50;1.40;;;7.10;99.90;;;;;;5056618;28;20503;-60
2021/12/04 08:27:43;;;;;;;1.40;1.30;;;7.20;99.90;;;;;;5056675;28;20456;-60
2021/12/04 08:30:13;;;;;;;1.77;1.50;;;7.20;99.90;;;;;;5056631;28;20469;-60
2021/12/04 08:32:41;;;;;;;3.20;1.40;;;7.10;99.90;;;;;;5056896;28;20449;-60
2021/12/04 08:35:10;;;;;;;1.40;1.30;;;7.20;99.90;;;;;;5056164;28;20523;-60
2021/12/04 08:37:37;;;;;;;1.70;1.60;;;7.30;99.90;;;;;;5056380;28;20449;-60
2021/12/04 08:40:11;;;;;;;1.63;1.20;;;7.30;99.90;;;;;;5056375;28;20823;-60
2021/12/04 08:42:39;;;;;;;2.27;1.30;;;7.40;99.90;;;;;;5059211;28;20436;-57
2021/12/04 08:45:09;;;;;;;1.70;1.60;;;7.40;99.90;;;;;;5075844;28;20449;-60
2021/12/04 08:47:38;;;;;;;1.50;1.40;;;7.40;99.90;;;;;;5075532;28;20460;-60
2021/12/04 08:50:06;;;;;;;1.50;1.40;;;7.50;99.90;;;;;;5075959;28;20541;-60
2021/12/04 08:52:33;;;;;;;1.60;1.50;;;7.50;99.90;;;;;;5075064;28;20541;-60
2021/12/04 08:55:00;;;;;;;1.57;1.47;;;7.50;99.90;;;;;;5073531;28;20488;-60
2021/12/04 08:57:27;;;;;;;1.77;1.67;;;7.60;99.90;;;;;;5072783;28;20483;-58
2021/12/04 08:59:54;;;;;;;1.37;1.27;;;7.50;99.90;;;;;;5072865;28;20471;-59
2021/12/04 09:02:23;;;;;;;1.83;1.60;;;7.70;99.90;;;;;;5059670;28;20499;-59
2021/12/04 09:04:51;;;;;;;1.40;1.30;;;7.70;99.90;;;;;;5053729;28;20466;-58
2021/12/04 09:07:18;;;;;;;1.60;1.50;;;7.70;99.90;;;;;;5053603;28;20465;-57
2021/12/04 09:09:46;;;;;;;1.70;1.60;;;7.60;99.90;;;;;;5052936;28;20999;-58
2021/12/04 09:12:15;;;;;;;1.80;1.70;;;7.60;99.90;;;;;;5053933;28;20468;-58
2021/12/04 09:14:47;;;;;;;1.83;1.40;;;7.50;99.90;;;;;;5057964;28;20473;-58
2021/12/04 09:17:16;;;;;;;4.17;2.00;;;7.70;99.90;;;;;;5065293;28;20457;-58
2021/12/04 09:19:45;;;;;;;2.13;1.80;;;7.50;99.90;;;;;;5058412;28;20793;-58
2021/12/04 09:22:16;;;;;;;1.80;1.70;;;7.60;99.90;;;;;;5071185;28;20455;-60
2021/12/04 09:24:46;;;;;;;1.70;1.60;;;7.60;99.90;;;;;;5052834;28;20436;-59
2021/12/04 09:27:31;;;;;;;1.70;1.60;;;7.70;99.90;;;;;;5051264;28;20896;-59
2021/12/04 09:30:08;;;;;;;3.53;1.90;;;7.70;99.90;;;;;;5050742;28;20973;-60
2021/12/04 09:35:45;;;;;;;1.60;1.50;;;7.90;99.90;;;;;;5071106;28;20468;-61
2021/12/04 10:00:44;;;;;;;2.17;1.60;;;8.30;99.90;;;;;;5055592;28;20966;-59
2021/12/04 10:03:39;;;;;;;1.87;1.60;;;8.30;99.90;;;;;;5074510;28;20435;-60
2021/12/04 10:12:17;;;;;;;1.50;1.40;;;8.30;99.90;;;;;;5054193;28;20584;-60
2021/12/04 10:15:10;;;;;;;2.83;1.40;;;;;;;;;;5054045;28;20907;-60
2021/12/04 10:20:41;;;;;;;1.50;1.40;;;8.70;99.90;;;;;;5053063;28;21011;-60
2021/12/04 10:23:31;;;;;;;2.07;1.60;;;8.90;99.90;;;;;;5066152;28;20446;-58
2021/12/04 10:34:17;;;;;;;1.40;1.30;;;9.50;99.90;;;;;;5074054;28;20965;-60
2021/12/04 10:36:44;;;;;;;2.37;1.70;;;9.30;99.90;;;;;;5073556;28;20459;-60
2021/12/04 10:39:12;;;;;;;1.60;1.50;;;9.30;99.90;;;;;;5073601;28;20445;-60
2021/12/04 10:41:43;;;;;;;1.70;1.60;;;9.40;99.90;;;;;;5073959;28;20445;-60
2021/12/04 10:44:15;;;;;;;1.70;1.50;;;9.50;99.90;;;;;;5073739;28;20428;-60
2021/12/04 10:46:57;;;;;;;6.33;1.70;;;9.50;99.90;;;;;;5073938;28;20460;-59
2021/12/04 10:49:44;;;;;;;1.67;1.40;;;9.60;99.90;;;;;;5073161;28;20512;-59
2021/12/04 10:52:28;;;;;;;1.70;1.60;;;9.90;99.90;;;;;;5057836;28;20459;-59
2021/12/04 10:55:13;;;;;;;1.87;1.60;;;10.10;99.90;;;;;;5073377;28;20508;-60
2021/12/04 11:00:39;;;;;;;3.60;2.00;;;9.90;99.90;;;;;;5073221;28;20981;-59
2021/12/04 11:03:22;;;;;;;1.37;1.27;;;10.00;99.90;;;;;;5073210;28;20899;-59
2021/12/04 11:25:56;;;;;;;1.70;1.60;;;10.00;99.90;;;;;;5070718;28;20498;-68
2021/12/04 11:37:07;;;;;;;1.50;1.40;;;10.00;99.90;;;;;;5072684;28;20508;-68
2021/12/04 11:40:05;;;;;;;1.70;1.60;;;10.00;99.90;;;;;;5071454;28;20468;-68
2021/12/04 11:42:39;;;;;;;2.03;1.83;;;10.00;99.90;;;;;;5073588;28;20428;-67
2021/12/04 11:45:14;;;;;;;1.50;1.40;;;10.00;99.90;;;;;;5072191;28;20429;-67
2021/12/04 11:47:46;;;;;;;1.43;1.33;;;10.00;99.90;;;;;;5073576;28;20479;-68
2021/12/04 11:50:22;;;;;;;1.70;1.50;;;10.00;99.90;;;;;;5067402;28;20457;-67
2021/12/04 11:52:53;;;;;;;1.60;1.50;;;10.00;99.90;;;;;;5072282;28;20495;-68
2021/12/04 11:55:21;;;;;;;1.50;1.40;;;10.00;99.90;;;;;;5072826;28;20844;-60
2021/12/04 11:57:49;;;;;;;1.40;1.30;;;10.00;99.90;;;;;;5072953;28;20494;-61
2021/12/04 12:00:23;;;;;;;1.70;1.60;;;10.00;99.90;;;;;;5072772;28;20951;-61
2021/12/04 12:02:53;;;;;;;1.97;1.77;;;10.10;99.90;;;;;;5059289;28;20445;-60
2021/12/04 12:05:23;;;;;;;1.40;1.30;;;10.10;99.90;;;;;;5052915;28;20846;-69
2021/12/04 12:07:54;;;;;;;1.73;1.63;;;10.20;99.90;;;;;;5053174;28;20445;-64
2021/12/04 12:10:25;;;;;;;1.30;1.20;;;10.10;99.90;;;;;;5052803;28;20465;-63
2021/12/04 12:13:03;;;;;;;1.50;1.40;;;10.10;99.90;;;;;;5053118;28;20522;-61
2021/12/04 12:15:34;;;;;;;1.30;1.20;;;10.10;99.90;;;;;;5052751;28;20465;-59
2021/12/04 12:18:14;;;;;;;1.40;1.30;;;10.20;99.90;;;;;;5065454;28;20448;-62
2021/12/04 12:20:45;;;;;;;1.23;1.13;;;10.20;99.90;;;;;;5072536;28;20541;-61
2021/12/04 12:23:17;;;;;;;1.30;1.20;;;10.20;99.90;;;;;;5072589;28;20661;-68
2021/12/04 12:37:21;;;;;;;1.40;1.30;;;10.20;99.90;;;;;;5150024;27;21024;-59
2021/12/04 12:39:54;;;;;;;1.70;1.30;;;10.20;99.90;;;;;;5149951;27;20491;-58
2021/12/04 12:42:30;;;;;;;1.40;1.30;;;10.20;99.90;;;;;;5149910;27;20432;-58
2021/12/04 12:45:18;;;;;;;1.50;1.40;;;10.20;99.90;;;;;;5150384;27;20760;-61
2021/12/04 12:47:51;;;;;;;1.50;1.40;;;10.20;99.90;;;;;;5150393;27;20469;-59
2021/12/04 12:50:30;;;;;;;1.60;1.30;;;10.20;99.90;;;;;;5150786;27;20500;-58
2021/12/04 12:53:04;;;;;;;2.00;1.80;;;10.20;99.90;;;;;;5151211;27;20476;-59
2021/12/04 12:55:34;;;;;;;1.33;1.23;;;10.10;99.90;;;;;;5151873;27;20463;-59
2021/12/04 12:58:14;;;;;;;1.77;1.60;;;10.20;99.90;;;;;;5151566;27;20554;-59
2021/12/04 13:11:55;;;;;;;1.50;1.40;;;10.10;99.90;;;;;;5152159;27;20409;-60
2021/12/04 13:14:24;;;;;;;2.03;1.50;;;10.00;99.90;;;;;;5152083;27;20425;-60
2021/12/04 13:16:57;;;;;;;1.60;1.50;;;10.00;99.90;;;;;;5151879;27;20480;-58
2021/12/04 13:19:25;;;;;;;4.00;1.50;;;10.00;99.90;;;;;;5151848;27;20498;-59
2021/12/04 13:21:55;;;;;;;1.63;1.20;;;10.00;99.90;;;;;;5151899;27;20445;-61
2021/12/04 13:24:26;;;;;;;2.60;1.60;;;10.10;99.90;;;;;;5151906;27;20447;-60
2021/12/04 13:26:54;;;;;;;1.70;1.60;;;9.90;99.90;;;;;;5151507;27;20932;-61
2021/12/04 13:29:25;;;;;;;1.53;1.43;;;10.00;99.90;;;;;;5151267;27;20445;-61
2021/12/04 13:31:55;;;;;;;1.60;1.50;;;10.00;99.90;;;;;;5151259;27;20445;-60
2021/12/04 13:34:25;;;;;;;1.33;1.23;;;10.00;99.90;;;;;;5151235;27;20436;-59
2021/12/04 13:36:54;;;;;;;1.77;1.67;;;10.00;99.90;;;;;;5150839;27;20510;-60
2021/12/04 13:39:22;;;;;;;1.40;1.30;;;10.00;99.90;;;;;;5151451;27;20441;-61
2021/12/04 13:41:52;;;;;;;1.93;1.67;;;10.00;99.90;;;;;;5151198;27;20528;-63
2021/12/04 13:44:22;;;;;;;1.97;1.40;;;9.90;99.90;;;;;;5151182;27;20516;-58
2021/12/04 13:46:52;;;;;;;2.67;1.70;;;9.90;99.90;;;;;;5147267;27;20892;-58
2021/12/04 13:49:21;;;;;;;3.70;1.80;;;10.00;99.90;;;;;;5137128;27;20445;-58
2021/12/04 13:51:53;;;;;;;1.50;1.40;;;10.00;99.90;;;;;;5137232;27;20955;-58
2021/12/04 13:54:20;;;;;;;1.57;1.47;;;9.90;99.90;;;;;;5137597;27;20426;-57
2021/12/04 13:56:48;;;;;;;2.60;1.77;;;9.90;99.90;;;;;;5137058;27;20495;-59
2021/12/04 13:59:23;;;;;;;2.07;1.87;;;9.90;99.90;;;;;;5137041;27;20445;-58
2021/12/04 14:01:50;;;;;;;1.70;1.57;;;9.90;99.90;;;;;;5137152;27;20933;-58
2021/12/04 14:04:17;;;;;;;1.70;1.60;;;9.90;99.90;;;;;;5137058;27;20477;-58
2021/12/04 14:06:50;;;;;;;1.80;1.50;;;9.80;99.90;;;;;;5137377;27;20873;-58
2021/12/04 14:09:17;;;;;;;1.70;1.60;;;9.80;99.90;;;;;;5137170;27;20537;-58
2021/12/04 14:11:44;;;;;;;1.70;1.60;;;9.90;99.90;;;;;;5137960;27;20441;-59
2021/12/04 14:14:12;;;;;;;1.90;1.80;;;9.90;99.90;;;;;;5137138;27;20446;-57
2021/12/04 14:16:42;;;;;;;1.67;1.57;;;9.80;99.90;;;;;;5136686;27;20489;-57
2021/12/04 14:19:15;;;;;;;3.37;2.40;;;9.80;99.90;;;;;;5137013;27;20446;-59
2021/12/04 14:21:42;;;;;;;2.20;1.87;;;9.70;99.90;;;;;;5136968;27;20541;-60
2021/12/04 14:24:10;;;;;;;2.00;1.90;;;9.70;99.90;;;;;;5136903;27;20533;-59
2021/12/04 14:26:37;;;;;;;2.07;1.53;;;9.70;99.90;;;;;;5136596;27;20488;-60
2021/12/04 14:29:04;;;;;;;1.87;1.77;;;9.70;99.90;;;;;;5136439;27;20536;-59
2021/12/04 14:31:32;;;;;;;2.67;1.70;;;9.60;99.90;;;;;;5136438;27;20456;-59
2021/12/04 14:34:00;;;;;;;3.63;1.73;;;9.60;99.90;;;;;;5136689;27;20456;-57
2021/12/04 14:36:28;;;;;;;2.50;1.97;;;9.70;99.90;;;;;;5136055;27;20493;-59
2021/12/04 14:38:58;;;;;;;1.90;1.80;;;9.70;99.90;;;;;;5136316;27;20996;-59
2021/12/04 14:41:30;;;;;;;1.90;1.80;;;9.70;99.90;;;;;;5136554;27;20522;-59
2021/12/04 14:43:57;;;;;;;2.10;1.90;;;9.70;99.90;;;;;;5136261;27;20909;-59
2021/12/04 14:46:26;;;;;;;1.93;1.80;;;9.70;99.90;;;;;;5136590;27;20437;-59
2021/12/04 14:48:54;;;;;;;3.60;1.93;;;9.60;99.90;;;;;;5136214;27;20536;-59
2021/12/04 14:51:25;;;;;;;2.17;2.03;;;9.50;99.90;;;;;;5136343;27;20510;-58
2021/12/04 14:53:54;;;;;;;1.83;1.50;;;9.60;99.90;;;;;;5136299;27;20402;-59
2021/12/04 14:56:23;;;;;;;1.67;1.57;;;9.60;99.90;;;;;;5136247;27;20548;-59
2021/12/04 14:58:50;;;;;;;2.00;1.80;;;9.70;99.90;;;;;;5134992;27;20537;-59
2021/12/04 15:01:20;;;;;;;2.00;1.80;;;9.60;99.90;;;;;;5135756;27;20458;-59
2021/12/04 15:03:57;;;;;;;2.53;2.20;;;9.60;99.90;;;;;;5136471;27;20441;-58
2021/12/04 15:06:27;;;;;;;1.70;1.60;;;9.60;99.90;;;;;;5136198;27;20476;-58
2021/12/04 15:09:02;;;;;;;2.03;1.83;;;9.50;99.90;;;;;;5135754;27;20448;-58
2021/12/04 15:11:32;;;;;;;2.53;1.70;;;9.60;99.90;;;;;;5136525;27;20424;-58
2021/12/04 15:14:03;;;;;;;1.60;1.43;;;9.60;99.90;;;;;;5136200;27;20951;-58
2021/12/04 15:16:35;;;;;;;2.20;2.00;;;9.60;99.90;;;;;;5135918;27;20473;-58
2021/12/04 15:19:13;;;;;;;2.30;2.10;;;9.60;99.90;;;;;;5135638;27;20905;-58
2021/12/04 15:21:47;;;;;;;2.13;1.67;;;9.50;99.90;;;;;;5135449;27;20919;-58
2021/12/04 15:24:20;;;;;;;1.90;1.70;;;9.50;99.90;;;;;;5135333;27;20430;-58
2021/12/04 15:26:50;;;;;;;2.80;2.60;;;9.60;99.90;;;;;;5135724;27;20781;-58
2021/12/04 15:29:19;;;;;;;2.43;2.23;;;9.60;99.90;;;;;;5135237;27;20533;-57
2021/12/04 15:31:47;;;;;;;2.20;2.00;;;9.80;99.90;;;;;;5135086;27;20540;-58
2021/12/04 15:34:14;;;;;;;2.43;2.20;;;9.70;99.90;;;;;;5135518;27;20461;-58
2021/12/04 15:36:46;;;;;;;2.53;2.20;;;9.70;99.90;;;;;;5134933;27;20493;-58
2021/12/04 15:39:28;;;;;;;2.60;2.40;;;9.70;99.90;;;;;;5135180;27;20814;-58